createdAt,value
2022-12-03T00:04:17.245Z,2.95
2022-12-03T00:09:25.133Z,2.88
2022-12-03T00:14:30.401Z,2.90
2022-12-03T00:19:35.782Z,2.67
2022-12-03T00:24:43.574Z,2.88
2022-12-03T00:29:48.718Z,3.58
2022-12-03T00:34:54.614Z,4.10
2022-12-03T00:40:02.569Z,4.35
2022-12-03T00:45:08.788Z,3.40
2022-12-03T00:50:14.808Z,3.40
2022-12-03T00:55:22.629Z,3.35
2022-12-03T01:00:28.218Z,3.25
2022-12-03T01:05:33.732Z,3.95
2022-12-03T01:10:41.735Z,2.90
2022-12-03T01:15:47.091Z,2.75
2022-12-03T01:20:52.385Z,2.50
2022-12-03T01:26:00.157Z,3.30
2022-12-03T01:31:17.675Z,3.70
2022-12-03T01:36:23.032Z,3.38
2022-12-03T01:41:31.346Z,4.57
2022-12-03T01:46:41.973Z,3.95
2022-12-03T01:51:47.263Z,3.42
2022-12-03T01:56:55.305Z,3.30
2022-12-03T02:02:00.708Z,2.45
2022-12-03T02:07:20.536Z,2.85
2022-12-03T02:12:31.756Z,3.00
2022-12-03T02:17:37.002Z,4.20
2022-12-03T02:22:49.898Z,3.13
2022-12-03T02:27:58.161Z,4.20
2022-12-03T02:33:03.522Z,2.67
2022-12-03T02:38:15.004Z,2.63
2022-12-03T02:43:24.010Z,2.92
2022-12-03T02:48:32.082Z,2.40
2022-12-03T02:53:39.294Z,2.45
2022-12-03T02:58:47.955Z,2.75
2022-12-03T03:03:54.207Z,2.53
2022-12-03T03:08:59.542Z,2.80
2022-12-03T03:14:07.718Z,2.83
2022-12-03T03:19:14.077Z,2.60
2022-12-03T03:24:19.593Z,2.85
2022-12-03T03:29:27.480Z,3.17
2022-12-03T03:34:33.914Z,2.88
2022-12-03T03:39:39.383Z,2.55
2022-12-03T03:44:48.406Z,2.60
2022-12-03T03:49:53.679Z,3.13
2022-12-03T03:54:58.816Z,3.33
2022-12-03T04:00:08.880Z,2.83
2022-12-03T04:05:18.799Z,3.00
2022-12-03T04:10:36.316Z,3.25
2022-12-03T04:15:44.149Z,2.70
2022-12-03T04:20:49.467Z,3.20
2022-12-03T04:26:18.495Z,3.03
2022-12-03T04:31:40.672Z,3.53
2022-12-03T04:36:45.919Z,3.00
2022-12-03T04:41:51.120Z,4.55
2022-12-03T04:46:59.027Z,3.13
2022-12-03T04:52:04.284Z,3.85
2022-12-03T04:57:09.880Z,3.00
2022-12-03T05:02:18.161Z,3.10
2022-12-03T05:07:23.494Z,3.85
2022-12-03T05:12:28.639Z,3.13
2022-12-03T05:17:36.479Z,2.92
2022-12-03T05:22:41.602Z,4.65
2022-12-03T05:27:46.673Z,3.85
2022-12-03T05:32:54.829Z,3.70
2022-12-03T05:37:59.938Z,3.83
2022-12-03T05:43:05.034Z,4.18
2022-12-03T05:48:13.938Z,4.68
2022-12-03T05:58:24.096Z,3.40
2022-12-03T06:03:32.020Z,3.45
2022-12-03T06:08:37.240Z,3.00
2022-12-03T06:13:42.480Z,4.40
2022-12-03T06:18:50.099Z,4.25
2022-12-03T06:23:55.313Z,4.95
2022-12-03T06:29:00.396Z,5.45
2022-12-03T06:34:08.078Z,6.35
2022-12-03T06:39:13.168Z,4.05
2022-12-03T06:44:18.281Z,4.10
2022-12-03T06:49:26.068Z,4.55
2022-12-03T06:54:31.180Z,4.78
2022-12-03T06:59:37.749Z,4.50
2022-12-03T07:04:46.602Z,4.28
2022-12-03T07:14:56.731Z,4.55
2022-12-03T07:20:04.962Z,3.95
2022-12-03T07:25:11.506Z,4.32
2022-12-03T07:30:18.493Z,3.97
2022-12-03T07:35:27.721Z,3.92
2022-12-03T07:40:32.824Z,4.68
2022-12-03T07:45:38.049Z,5.45
2022-12-03T07:50:45.836Z,4.72
2022-12-03T07:55:51.055Z,4.55
2022-12-03T08:00:56.360Z,4.03
2022-12-03T08:06:04.254Z,3.90
2022-12-03T08:11:09.675Z,3.95
2022-12-03T08:16:19.870Z,4.97
2022-12-03T08:21:27.769Z,3.53
2022-12-03T08:26:33.029Z,3.75
2022-12-03T08:31:38.383Z,4.53
2022-12-03T08:36:54.885Z,5.25
2022-12-03T08:42:28.603Z,4.05
2022-12-03T08:47:56.559Z,4.32
2022-12-03T09:50:52.668Z,4.18
2022-12-03T09:55:58.459Z,3.88
2022-12-03T10:01:03.822Z,3.05
2022-12-03T10:06:13.808Z,4.47
2022-12-03T10:11:19.571Z,3.53
2022-12-03T10:16:27.050Z,4.30
2022-12-03T10:21:38.194Z,3.83
2022-12-03T10:26:43.999Z,4.78
2022-12-03T10:31:53.654Z,4.30
2022-12-03T10:37:20.323Z,3.53
2022-12-03T10:42:25.932Z,3.28
2022-12-03T10:47:31.189Z,4.90
2022-12-03T10:52:39.125Z,3.47
2022-12-03T10:57:46.490Z,3.85
2022-12-03T11:02:56.658Z,4.07
2022-12-03T11:08:04.974Z,3.72
2022-12-03T11:13:31.913Z,5.10
2022-12-03T11:19:02.219Z,4.20
2022-12-03T11:24:24.162Z,3.58
2022-12-03T11:30:07.576Z,3.58
2022-12-03T11:35:15.516Z,3.97
2022-12-03T11:40:39.107Z,3.88
2022-12-03T11:45:44.899Z,4.85
2022-12-03T11:50:54.363Z,3.85
2022-12-03T11:56:09.529Z,3.63
2022-12-03T12:01:16.842Z,3.67
2022-12-03T12:06:23.399Z,5.70
2022-12-03T12:11:45.261Z,3.45
2022-12-03T12:16:58.637Z,5.15
2022-12-03T12:22:45.505Z,2.88
2022-12-03T12:27:55.461Z,3.58
2022-12-03T13:26:09.245Z,2.28
2022-12-03T15:35:27.004Z,4.82
2022-12-03T15:46:09.766Z,5.47
2022-12-03T15:51:54.399Z,6.53
2022-12-03T15:57:18.259Z,5.18
2022-12-03T16:02:34.267Z,5.50
2022-12-03T16:19:35.687Z,5.60
2022-12-03T16:25:32.417Z,6.35
2022-12-03T16:30:44.971Z,6.95
2022-12-03T16:35:56.038Z,5.63
2022-12-03T16:41:04.436Z,4.78
2022-12-03T16:46:26.599Z,6.60
2022-12-03T16:51:33.297Z,6.00
2022-12-03T17:02:55.445Z,5.43
2022-12-03T17:04:28.465Z,6.07
2022-12-03T17:08:00.944Z,5.82
2022-12-03T17:13:45.878Z,6.15
2022-12-03T17:19:16.603Z,6.88
2022-12-03T17:24:38.815Z,6.05
2022-12-03T17:36:14.291Z,5.18
2022-12-03T17:41:19.585Z,5.60
2022-12-03T17:46:27.849Z,4.95
2022-12-03T17:51:37.775Z,6.57
2022-12-03T17:56:45.426Z,6.50
2022-12-03T18:01:55.484Z,6.20
2022-12-03T18:07:02.283Z,6.32
2022-12-03T18:12:08.285Z,5.55
2022-12-03T18:22:52.425Z,6.40
2022-12-03T18:28:00.956Z,7.03
2022-12-03T18:33:19.297Z,6.85
2022-12-03T18:38:25.096Z,7.05
2022-12-03T18:49:29.101Z,7.22
2022-12-03T18:55:06.431Z,6.60
2022-12-03T19:00:28.352Z,7.45
2022-12-03T19:17:33.315Z,5.95
2022-12-03T19:22:38.664Z,7.05
2022-12-03T19:28:01.108Z,6.55
2022-12-03T19:33:54.439Z,7.65
2022-12-03T19:39:23.556Z,6.60
2022-12-03T20:03:01.977Z,5.38
2022-12-03T20:31:48.310Z,7.32
2022-12-03T20:37:07.973Z,8.23
2022-12-03T20:49:00.419Z,6.07
2022-12-03T21:07:02.629Z,8.52
2022-12-03T21:18:52.453Z,6.53
2022-12-03T21:58:56.687Z,6.90
2022-12-03T22:10:48.301Z,7.45
2022-12-03T22:16:34.928Z,7.72
2022-12-03T22:21:49.397Z,8.55
2022-12-03T22:27:14.812Z,7.97
2022-12-03T22:32:27.053Z,7.07
2022-12-03T22:44:01.441Z,6.65
2022-12-03T22:49:45.419Z,7.90
2022-12-03T22:54:53.472Z,7.70
2022-12-03T23:00:02.112Z,7.15
2022-12-03T23:12:25.466Z,5.05
2022-12-03T23:17:50.057Z,6.35
2022-12-03T23:29:07.789Z,5.35
2022-12-03T23:40:58.803Z,4.28
